Time;durP1;ratioP1;P1;durP2;ratioP2;P2;SDS_P1;SDS_P2;PMS_P1;PMS_P2;Temp;Humidity;BMP_temperature;BMP_pressure;BME280_temperature;BME280_humidity;BME280_pressure;Samples;Min_cycle;Max_cycle;Signal;HPM_P1;HPM_P2
2022/12/04 00:00:10;;;;;;;2.12;1.34;;;;;;;-5.42;53.65;103576.86;458962;115;922598;-75
2022/12/04 00:01:16;;;;;;;1.79;1.44;;;;;;;-5.43;53.53;103577.77;458698;113;930533;-77
2022/12/04 00:02:21;;;;;;;1.53;1.39;;;;;;;-5.45;53.64;103575.13;458863;115;922558;-78
2022/12/04 00:03:24;;;;;;;1.87;1.55;;;;;;;-5.47;53.54;103572.54;458884;115;922600;-78
2022/12/04 00:04:28;;;;;;;1.29;1.17;;;;;;;-5.49;53.59;103579.67;458922;115;922611;-79
2022/12/04 00:05:31;;;;;;;1.92;1.22;;;;;;;-5.50;53.56;103574.38;458991;115;922484;-78
2022/12/04 00:06:34;;;;;;;1.63;1.38;;;;;;;-5.52;53.59;103574.44;458967;113;922584;-76
2022/12/04 00:07:37;;;;;;;1.79;1.32;;;;;;;-5.53;53.63;103572.69;459021;115;922457;-77
2022/12/04 00:08:41;;;;;;;1.98;1.26;;;;;;;-5.52;53.63;103573.56;458977;115;922494;-78
2022/12/04 00:09:44;;;;;;;2.01;1.23;;;;;;;-5.52;53.73;103578.88;458899;115;923518;-77
2022/12/04 00:10:47;;;;;;;1.55;1.21;;;;;;;-5.52;53.67;103576.22;459007;113;922577;-78
2022/12/04 00:11:50;;;;;;;1.37;1.06;;;;;;;-5.51;53.72;103577.95;459040;115;922495;-77
2022/12/04 00:12:54;;;;;;;1.91;1.24;;;;;;;-5.50;53.79;103582.36;458997;115;922504;-78
2022/12/04 00:13:58;;;;;;;1.76;1.21;;;;;;;-5.49;53.74;103582.33;459075;115;922610;-76
2022/12/04 00:15:03;;;;;;;1.57;1.27;;;;;;;-5.49;53.69;103577.01;458175;115;922427;-77
2022/12/04 00:16:12;;;;;;;1.21;1.02;;;;;;;-5.50;53.57;103585.02;456655;113;923102;-78
2022/12/04 00:17:15;;;;;;;2.03;1.23;;;;;;;-5.50;53.60;103582.36;458780;115;922927;-77
2022/12/04 00:18:19;;;;;;;2.22;1.29;;;;;;;-5.48;53.66;103583.20;458993;115;922520;-78
2022/12/04 00:19:22;;;;;;;1.59;1.08;;;;;;;-5.51;53.55;103581.48;458952;115;923016;-77
2022/12/04 00:20:26;;;;;;;1.44;0.99;;;;;;;-5.51;53.53;103585.92;459003;115;922627;-78
2022/12/04 00:21:29;;;;;;;1.46;1.08;;;;;;;-5.51;53.64;103588.58;458887;113;922454;-78
2022/12/04 00:22:33;;;;;;;1.47;1.17;;;;;;;-5.51;53.61;103588.58;458949;115;922480;-77
2022/12/04 00:23:37;;;;;;;2.01;1.26;;;;;;;-5.53;53.45;103583.32;458898;115;922516;-78
2022/12/04 00:24:41;;;;;;;7.37;1.75;;;;;;;-5.54;53.54;103591.33;458781;115;922558;-77
2022/12/04 00:25:47;;;;;;;2.14;1.17;;;;;;;-5.56;53.47;103591.36;458965;113;922657;-77
2022/12/04 00:26:51;;;;;;;1.43;1.33;;;;;;;-5.57;53.53;103589.60;458806;115;922670;-78
2022/12/04 00:27:54;;;;;;;1.35;1.25;;;;;;;-5.56;53.52;103590.48;458932;115;922537;-78
2022/12/04 00:28:58;;;;;;;1.48;1.14;;;;;;;-5.56;53.56;103591.36;458952;115;922909;-77
2022/12/04 00:30:01;;;;;;;1.49;1.18;;;;;;;-5.56;53.57;103591.36;458937;115;922656;-77
2022/12/04 00:31:06;;;;;;;1.26;1.07;;;;;;;-5.57;53.39;103592.26;458995;113;922835;-78
2022/12/04 00:32:10;;;;;;;1.24;0.97;;;;;;;-5.59;53.36;103594.10;458833;115;922586;-77
2022/12/04 00:33:13;;;;;;;1.36;1.26;;;;;;;-5.60;53.43;103592.35;459037;115;922566;-78
2022/12/04 00:34:16;;;;;;;2.92;1.59;;;;;;;-5.61;53.32;103587.94;458881;115;922865;-77
2022/12/04 00:35:19;;;;;;;1.24;1.14;;;;;;;-5.62;53.35;103587.97;458988;115;922516;-76
2022/12/04 00:36:26;;;;;;;1.55;1.26;;;;;;;-5.63;53.42;103595.09;458980;113;922594;-79
2022/12/04 00:37:29;;;;;;;1.89;1.26;;;;;;;-5.63;53.43;103584.47;458831;115;922527;-78
2022/12/04 00:38:32;;;;;;;2.04;1.22;;;;;;;-5.63;53.43;103584.47;458978;115;922606;-78
2022/12/04 00:39:35;;;;;;;1.50;1.40;;;;;;;-5.64;53.48;103580.05;458916;115;922520;-77
2022/12/04 00:40:39;;;;;;;1.17;1.07;;;;;;;-5.63;53.47;103581.81;458971;113;923078;-78
2022/12/04 00:41:42;;;;;;;1.38;1.26;;;;;;;-5.62;53.38;103586.19;459033;115;922573;-78
2022/12/04 00:42:45;;;;;;;1.18;1.07;;;;;;;-5.61;53.48;103589.72;458989;115;922438;-77
2022/12/04 00:43:48;;;;;;;1.01;0.96;;;;;;;-5.61;53.49;103584.41;459003;115;922588;-77
2022/12/04 00:44:52;;;;;;;1.44;1.17;;;;;;;-5.61;53.35;103584.41;458943;115;922546;-78
2022/12/04 00:45:55;;;;;;;1.24;1.04;;;;;;;-5.61;53.43;103582.63;458958;113;930795;-79
2022/12/04 00:46:59;;;;;;;2.64;1.36;;;;;;;-5.62;53.34;103588.84;458890;115;922845;-78
2022/12/04 00:48:02;;;;;;;1.51;1.22;;;;;;;-5.62;53.29;103586.19;459012;115;922977;-79
2022/12/04 00:49:05;;;;;;;1.68;1.31;;;;;;;-5.61;53.35;103593.25;458953;115;922502;-76
2022/12/04 00:50:10;;;;;;;1.28;1.15;;;;;;;-5.62;53.27;103585.31;458949;115;922544;-76
2022/12/04 00:51:16;;;;;;;1.29;1.14;;;;;;;-5.63;53.25;103581.81;458880;113;922527;-78
2022/12/04 00:52:20;;;;;;;0.87;0.84;;;;;;;-5.64;53.30;103587.16;458821;115;922524;-77
2022/12/04 00:53:23;;;;;;;1.86;1.36;;;;;;;-5.66;53.25;103584.52;458937;115;922521;-77
2022/12/04 00:54:26;;;;;;;1.08;0.96;;;;;;;-5.67;53.20;103588.09;459018;115;922825;-77
2022/12/04 00:55:29;;;;;;;0.98;0.93;;;;;;;-5.67;53.27;103581.89;459019;115;922958;-78
2022/12/04 00:56:33;;;;;;;1.02;0.90;;;;;;;-5.67;53.24;103580.11;458947;113;922480;-78
2022/12/04 00:57:36;;;;;;;1.30;1.10;;;;;;;-5.68;53.26;103581.02;458605;111;930090;-78
2022/12/04 00:58:39;;;;;;;1.52;1.20;;;;;;;-5.68;53.22;103580.17;458543;115;922815;-79
2022/12/04 00:59:42;;;;;;;2.41;1.12;;;;;;;-5.69;53.30;103571.33;458479;115;922870;-78
2022/12/04 01:00:46;;;;;;;1.71;1.00;;;;;;;-5.69;53.21;103579.30;458362;113;930157;-78
2022/12/04 01:01:49;;;;;;;1.37;1.14;;;;;;;-5.70;53.27;103572.23;458474;115;922517;-78
2022/12/04 01:02:53;;;;;;;1.22;0.95;;;;;;;-5.70;53.22;103568.70;458489;115;922562;-76
2022/12/04 01:03:56;;;;;;;1.94;0.91;;;;;;;-5.70;53.12;103576.67;458482;115;922483;-79
2022/12/04 01:05:00;;;;;;;1.01;0.96;;;;;;;-5.71;53.17;103572.26;458406;115;930258;-77
2022/12/04 01:06:04;;;;;;;1.39;1.29;;;;;;;-5.72;53.19;103576.70;458403;113;930284;-77
2022/12/04 01:07:07;;;;;;;2.91;1.09;;;;;;;-5.74;53.19;103567.91;458446;115;922910;-78
2022/12/04 01:08:11;;;;;;;1.11;1.00;;;;;;;-5.73;53.25;103574.10;458563;115;922619;-78
2022/12/04 01:09:14;;;;;;;1.01;0.92;;;;;;;-5.76;53.17;103571.50;458476;115;922534;-79
2022/12/04 01:10:18;;;;;;;1.30;1.20;;;;;;;-5.76;53.17;103571.50;458606;115;922604;-76
2022/12/04 01:11:22;;;;;;;1.64;1.31;;;;;;;-5.77;53.22;103573.28;458539;113;922502;-77
2022/12/04 01:12:25;;;;;;;1.52;1.36;;;;;;;-5.77;53.14;103578.59;458423;115;922776;-77
2022/12/04 01:13:28;;;;;;;1.47;1.31;;;;;;;-5.78;53.11;103575.97;458525;115;928442;-78
2022/12/04 01:14:31;;;;;;;1.13;0.99;;;;;;;-5.79;53.08;103576.91;458529;115;922539;-76
2022/12/04 01:15:41;;;;;;;3.11;1.24;;;;;;;-5.81;53.08;103576.93;458508;113;922527;-78
2022/12/04 01:16:46;;;;;;;1.66;1.29;;;;;;;-5.82;53.09;103574.30;458312;115;923454;-78
2022/12/04 01:17:49;;;;;;;1.13;1.06;;;;;;;-5.83;53.09;103578.73;458403;115;922851;-78
2022/12/04 01:18:52;;;;;;;1.33;1.23;;;;;;;-5.84;53.08;103582.30;458524;115;922761;-78
2022/12/04 01:19:55;;;;;;;1.87;1.44;;;;;;;-5.83;53.22;103583.17;458532;115;922505;-78
2022/12/04 01:20:59;;;;;;;1.57;1.15;;;;;;;-5.83;53.18;103578.73;458418;113;922466;-78
2022/12/04 01:22:02;;;;;;;1.38;1.26;;;;;;;-5.82;53.17;103580.49;458451;115;930190;-77
2022/12/04 01:23:05;;;;;;;1.46;1.20;;;;;;;-5.81;53.18;103578.71;458541;115;923049;-77
2022/12/04 01:24:09;;;;;;;1.49;1.27;;;;;;;-5.81;53.20;103579.59;458460;115;922785;-77
2022/12/04 01:25:12;;;;;;;1.49;1.22;;;;;;;-5.81;53.17;103576.93;458470;115;922509;-77
2022/12/04 01:26:15;;;;;;;1.25;1.15;;;;;;;-5.82;53.09;103585.80;458591;113;922579;-78
2022/12/04 01:27:18;;;;;;;1.40;1.18;;;;;;;-5.85;53.17;103583.23;458546;115;923152;-78
2022/12/04 01:28:22;;;;;;;1.79;1.57;;;;;;;-5.85;53.08;103579.70;458614;115;922530;-77
2022/12/04 01:29:26;;;;;;;3.26;1.92;;;;;;;-5.85;53.10;103579.70;458475;115;922811;-77
2022/12/04 01:30:29;;;;;;;1.56;1.42;;;;;;;-5.87;53.19;103578.89;458533;115;922369;-77
2022/12/04 01:31:32;;;;;;;2.20;1.68;;;;;;;-5.88;53.24;103585.11;458583;115;922524;-77
2022/12/04 01:32:35;;;;;;;2.89;1.50;;;;;;;-5.88;53.17;103585.11;458498;115;922460;-78
2022/12/04 01:33:40;;;;;;;1.52;1.42;;;;;;;-5.89;53.18;103586.88;458586;115;922496;-78
2022/12/04 01:34:43;;;;;;;1.55;1.39;;;;;;;-5.90;53.21;103580.69;458397;115;922530;-79
2022/12/04 01:35:55;;;;;;;1.62;1.51;;;;;;;-5.89;53.18;103586.88;458488;113;925314;-78
2022/12/04 01:36:58;;;;;;;3.03;1.82;;;;;;;-5.89;53.21;103581.56;458339;115;923034;-79
2022/12/04 01:38:01;;;;;;;2.06;1.81;;;;;;;-5.87;53.27;103586.86;458553;115;922756;-78
2022/12/04 01:39:04;;;;;;;2.14;1.37;;;;;;;-5.86;53.21;103588.58;458544;115;922519;-77
2022/12/04 01:40:13;;;;;;;1.44;1.34;;;;;;;-5.85;53.25;103590.33;458546;115;922597;-78
2022/12/04 01:41:20;;;;;;;1.68;1.45;;;;;;;-5.86;53.17;103596.55;458346;113;923436;-78
2022/12/04 01:42:24;;;;;;;1.67;1.47;;;;;;;-5.88;53.23;103587.77;458273;115;922800;-77
2022/12/04 01:43:30;;;;;;;2.32;1.82;;;;;;;-5.88;53.14;103596.61;458493;115;922476;-78
2022/12/04 01:44:33;;;;;;;2.46;1.88;;;;;;;-5.88;53.23;103593.08;458309;115;922983;-77
2022/12/04 01:45:40;;;;;;;2.98;1.89;;;;;;;-5.88;53.15;103595.73;458389;113;922850;-78
2022/12/04 01:46:45;;;;;;;2.61;1.96;;;;;;;-5.88;53.27;103588.64;458288;115;922735;-78
2022/12/04 01:47:49;;;;;;;3.07;2.22;;;;;;;-5.87;53.22;103593.05;458343;115;922915;-78
2022/12/04 01:48:53;;;;;;;2.14;1.88;;;;;;;-5.86;53.30;103600.08;458467;115;922515;-78
2022/12/04 01:49:58;;;;;;;2.16;1.75;;;;;;;-5.85;53.28;103596.52;458448;115;922597;-78
2022/12/04 01:51:08;;;;;;;2.86;2.16;;;;;;;-5.83;53.20;103592.02;458331;113;922586;-79
2022/12/04 01:52:20;;;;;;;2.03;1.87;;;;;;;-5.83;53.17;103589.36;458279;115;923679;-79
2022/12/04 01:53:24;;;;;;;2.31;2.11;;;;;;;-5.83;53.26;103594.68;458352;115;922513;-78
2022/12/04 01:54:31;;;;;;;2.64;1.92;;;;;;;-5.82;53.18;103600.88;458441;115;922585;-78
2022/12/04 01:55:34;;;;;;;2.61;1.69;;;;;;;-5.83;53.25;103591.14;458357;113;922554;-78
2022/12/04 01:56:44;;;;;;;1.77;1.67;;;;;;;-5.83;53.27;103599.99;458482;115;923397;-78
2022/12/04 01:57:47;;;;;;;2.09;1.89;;;;;;;-5.83;53.21;103605.30;458667;115;930304;-78
2022/12/04 01:58:54;;;;;;;2.26;1.71;;;;;;;-5.83;53.27;103597.34;458930;115;923780;-78
2022/12/04 02:00:01;;;;;;;2.34;1.54;;;;;;;-5.82;53.26;103603.53;458762;115;922779;-78
2022/12/04 02:01:06;;;;;;;2.08;1.72;;;;;;;-5.83;53.19;103604.43;458745;113;922936;-77
2022/12/04 02:02:15;;;;;;;1.51;1.39;;;;;;;-5.84;53.22;103606.20;458758;115;922509;-78
2022/12/04 02:03:18;;;;;;;2.94;1.75;;;;;;;-5.84;53.24;103598.23;458767;115;922508;-78
2022/12/04 02:04:22;;;;;;;1.87;1.58;;;;;;;-5.84;53.17;103608.02;458973;115;923008;-78
2022/12/04 02:05:25;;;;;;;1.71;1.35;;;;;;;-5.84;53.23;103606.20;458904;115;923324;-78
2022/12/04 02:06:28;;;;;;;2.22;1.72;;;;;;;-5.85;53.21;103596.52;458908;113;922637;-77
2022/12/04 02:07:32;;;;;;;2.29;1.69;;;;;;;-5.85;53.11;103603.61;458958;115;922523;-78
2022/12/04 02:08:36;;;;;;;2.37;1.90;;;;;;;-5.85;53.24;103604.49;458909;115;922582;-78
2022/12/04 02:09:41;;;;;;;1.67;1.56;;;;;;;-5.86;53.18;103601.86;458790;115;930385;-78
2022/12/04 02:10:48;;;;;;;1.63;1.32;;;;;;;-5.87;53.05;103605.45;458808;113;922529;-77
2022/12/04 02:12:12;;;;;;;2.19;1.55;;;;;;;-5.88;53.11;103607.23;458880;115;923011;-78
2022/12/04 02:13:28;;;;;;;2.45;1.78;;;;;;;-5.90;53.07;103604.60;458885;115;923017;-81
2022/12/04 02:14:53;;;;;;;2.09;1.54;;;;;;;-5.91;53.09;103613.51;458801;115;922485;-77
2022/12/04 02:16:03;;;;;;;2.86;1.54;;;;;;;-5.94;53.11;103607.38;458786;113;922487;-77
2022/12/04 02:17:22;;;;;;;2.23;1.57;;;;;;;-5.97;53.11;103613.64;459019;115;922597;-78
2022/12/04 02:18:31;;;;;;;1.69;1.43;;;;;;;-5.99;53.21;103611.92;458792;115;922542;-78
2022/12/04 02:19:53;;;;;;;3.85;1.86;;;;;;;-5.99;53.20;103611.92;458919;115;923008;-78
2022/12/04 02:21:10;;;;;;;2.78;1.66;;;;;;;-6.00;53.22;103612.82;459066;113;922561;-78
2022/12/04 02:22:22;;;;;;;2.36;1.53;;;;;;;-6.01;53.25;103621.72;459530;115;922816;-79
2022/12/04 02:23:52;;;;;;;2.19;1.49;;;;;;;-6.03;53.25;103619.09;459993;115;921965;-77
2022/12/04 02:25:05;;;;;;;2.03;1.67;;;;;;;-6.05;53.35;103615.58;459613;115;922582;-78
2022/12/04 02:26:33;;;;;;;3.36;1.59;;;;;;;-6.07;53.37;103620.08;459934;113;922454;-78
2022/12/04 02:27:43;;;;;;;2.36;1.60;;;;;;;-6.09;53.29;103615.69;459898;115;922074;-76
2022/12/04 02:28:56;;;;;;;2.14;1.69;;;;;;;-6.11;53.41;103618.38;460289;115;922016;-75
2022/12/04 02:30:06;;;;;;;2.44;1.72;;;;;;;-6.13;53.43;103619.33;460064;112;922641;-77
2022/12/04 02:31:13;;;;;;;2.44;1.73;;;;;;;-6.13;53.49;103619.33;460047;115;922078;-77
2022/12/04 02:32:31;;;;;;;2.02;1.82;;;;;;;-6.14;53.39;103617.58;459839;112;922578;-77
2022/12/04 02:33:50;;;;;;;2.16;1.73;;;;;;;-6.15;53.43;103613.17;459921;115;922002;-76
2022/12/04 02:34:59;;;;;;;2.13;1.74;;;;;;;-6.15;53.50;103618.48;459654;115;922349;-76
2022/12/04 02:36:06;;;;;;;3.45;1.68;;;;;;;-6.17;53.37;103615.84;459864;113;922282;-77
2022/12/04 02:37:19;;;;;;;2.10;1.76;;;;;;;-6.18;53.41;103614.13;459711;115;922352;-77
2022/12/04 02:38:28;;;;;;;2.03;1.38;;;;;;;-6.18;53.47;103618.56;459947;115;922378;-77
2022/12/04 02:39:40;;;;;;;2.07;1.69;;;;;;;-6.18;53.43;103616.78;459771;115;922049;-75
2022/12/04 02:40:53;;;;;;;1.79;1.44;;;;;;;-6.19;53.50;103612.38;459763;115;922247;-76
2022/12/04 02:42:06;;;;;;;2.48;1.86;;;;;;;-6.20;53.45;103621.23;458915;115;922543;-78
2022/12/04 02:43:28;;;;;;;2.48;1.63;;;;;;;-6.19;53.40;103619.46;458984;115;922374;-77
2022/12/04 02:44:37;;;;;;;1.27;1.16;;;;;;;-6.19;53.47;103619.46;458924;115;922406;-77
2022/12/04 02:45:56;;;;;;;3.45;1.65;;;;;;;-6.19;53.39;103616.81;458869;113;922570;-77
2022/12/04 02:47:03;;;;;;;2.16;1.51;;;;;;;-6.19;53.41;103620.34;458884;115;922550;-78
2022/12/04 02:48:07;;;;;;;2.48;1.54;;;;;;;-6.20;53.37;103617.70;458907;115;923302;-76
2022/12/04 02:49:17;;;;;;;1.80;1.66;;;;;;;-6.21;53.44;103615.95;459014;115;922506;-79
2022/12/04 02:50:23;;;;;;;1.72;1.50;;;;;;;-6.23;53.36;103621.32;458862;115;923051;-79
2022/12/04 02:51:29;;;;;;;2.11;1.78;;;;;;;-6.22;53.42;103625.70;458828;113;922796;-76
2022/12/04 02:52:45;;;;;;;1.77;1.48;;;;;;;-6.22;53.43;103616.85;458380;115;922500;-78
2022/12/04 02:53:51;;;;;;;1.44;1.34;;;;;;;-6.22;53.47;103624.81;458066;116;922894;-77
2022/12/04 02:54:58;;;;;;;1.93;1.21;;;;;;;-6.21;53.36;103618.61;458031;116;922367;-76
2022/12/04 02:56:09;;;;;;;1.35;1.25;;;;;;;-6.23;53.33;103621.32;457824;114;922711;-77
2022/12/04 02:57:16;;;;;;;1.94;1.18;;;;;;;-6.24;53.39;103619.56;464221;112;922830;-78
2022/12/04 02:58:40;;;;;;;1.61;1.22;;;;;;;-6.23;53.34;103620.44;474020;112;922811;-76
2022/12/04 02:59:46;;;;;;;1.27;1.03;;;;;;;-6.23;53.32;103621.32;474080;112;922528;-78
2022/12/04 03:00:51;;;;;;;1.22;1.11;;;;;;;-6.23;53.29;103623.09;474013;112;922518;-78
2022/12/04 03:01:58;;;;;;;1.32;1.14;;;;;;;-6.25;53.37;103620.47;474082;112;922503;-79
2022/12/04 03:03:05;;;;;;;2.45;1.48;;;;;;;-6.25;53.33;103627.55;474051;112;922463;-77
2022/12/04 03:04:20;;;;;;;1.50;1.14;;;;;;;-6.26;53.36;103618.71;473339;112;922504;-77
2022/12/04 03:05:30;;;;;;;1.43;1.20;;;;;;;-6.26;53.29;103618.71;473978;112;922905;-77
2022/12/04 03:06:37;;;;;;;2.27;1.19;;;;;;;-6.26;53.27;103620.48;473814;112;922547;-77
2022/12/04 03:07:58;;;;;;;1.23;1.13;;;;;;;-6.26;53.26;103620.48;474041;112;922547;-78
2022/12/04 03:09:08;;;;;;;1.22;1.12;;;;;;;-6.25;53.25;103627.55;474081;112;922502;-78
2022/12/04 03:10:15;;;;;;;1.19;1.09;;;;;;;-6.27;53.18;103621.39;471737;112;923226;-78
2022/12/04 03:11:18;;;;;;;2.19;1.44;;;;;;;-6.29;53.22;103629.41;473309;112;922395;-77
2022/12/04 03:12:25;;;;;;;1.61;1.39;;;;;;;-6.29;53.19;103624.11;474229;112;922433;-77
2022/12/04 03:13:32;;;;;;;1.42;1.32;;;;;;;-6.30;53.22;103627.66;474042;112;922797;-78
2022/12/04 03:14:38;;;;;;;2.43;1.61;;;;;;;-6.30;53.25;103626.78;473950;112;922900;-77
2022/12/04 03:15:47;;;;;;;2.38;1.39;;;;;;;-6.32;53.25;103627.68;474029;112;922477;-78
2022/12/04 03:16:54;;;;;;;2.26;1.52;;;;;;;-6.32;53.23;103632.98;474066;112;922528;-78
2022/12/04 03:18:01;;;;;;;3.62;1.69;;;;;;;-6.33;53.22;103625.92;474021;112;922535;-77
2022/12/04 03:19:14;;;;;;;2.55;1.70;;;;;;;-6.34;53.15;103632.13;474083;112;922417;-78
2022/12/04 03:20:18;;;;;;;2.01;1.51;;;;;;;-6.33;53.19;103630.36;474092;112;922566;-77
2022/12/04 03:21:27;;;;;;;2.06;1.65;;;;;;;-6.34;53.11;103623.33;474158;112;922566;-77
2022/12/04 03:22:33;;;;;;;1.86;1.58;;;;;;;-6.36;53.18;103628.66;474009;112;922846;-78
2022/12/04 03:23:40;;;;;;;1.58;1.47;;;;;;;-6.35;53.14;103637.50;474046;112;922516;-78
2022/12/04 03:24:50;;;;;;;2.44;1.76;;;;;;;-6.36;53.24;103636.63;473863;112;922968;-77
2022/12/04 03:25:57;;;;;;;2.60;1.78;;;;;;;-6.37;53.16;103634.87;473636;112;922921;-78
2022/12/04 03:27:06;;;;;;;1.87;1.45;;;;;;;-6.35;53.23;103634.84;473734;112;923170;-78
2022/12/04 03:28:13;;;;;;;1.86;1.43;;;;;;;-6.36;53.25;103639.28;473584;112;922446;-77
2022/12/04 03:29:32;;;;;;;14.87;1.70;;;;;;;-6.36;53.24;103641.94;473386;112;922414;-77
2022/12/04 03:30:41;;;;;;;1.56;1.39;;;;;;;-6.36;53.16;103636.63;473249;112;922538;-78
2022/12/04 03:31:54;;;;;;;1.50;1.36;;;;;;;-6.37;53.11;103634.87;474020;112;922384;-78
2022/12/04 03:33:04;;;;;;;1.66;1.56;;;;;;;-6.38;53.11;103638.42;473033;112;922624;-77
2022/12/04 03:34:09;;;;;;;1.59;1.49;;;;;;;-6.40;53.13;103634.07;473923;112;922350;-78
2022/12/04 03:35:44;;;;;;;1.87;1.48;;;;;;;-6.42;53.09;103635.87;474049;112;922474;-78
2022/12/04 03:36:57;;;;;;;2.16;1.66;;;;;;;-6.43;53.11;103644.73;474072;112;922544;-77
2022/12/04 03:38:13;;;;;;;2.03;1.65;;;;;;;-6.44;53.13;103637.67;471304;112;922822;-77
2022/12/04 03:39:32;;;;;;;2.21;2.00;;;;;;;-6.48;53.14;103642.17;473735;112;922684;-78
2022/12/04 03:40:39;;;;;;;1.46;1.23;;;;;;;-6.49;53.26;103645.73;474055;112;922911;-78
2022/12/04 03:42:10;;;;;;;1.62;1.52;;;;;;;-6.50;53.18;103643.09;474059;112;922448;-78
2022/12/04 03:43:25;;;;;;;1.99;1.34;;;;;;;-6.52;53.30;103645.80;473954;112;922412;-77
2022/12/04 03:44:35;;;;;;;1.70;1.35;;;;;;;-6.55;53.26;103645.84;474088;112;922512;-77
2022/12/04 03:45:45;;;;;;;2.29;1.56;;;;;;;-6.59;53.28;103641.52;471487;112;922495;-77
2022/12/04 03:46:55;;;;;;;1.91;1.72;;;;;;;-6.60;53.22;103646.84;474064;112;922497;-78
2022/12/04 03:48:02;;;;;;;3.59;1.64;;;;;;;-6.62;53.29;103643.37;473989;112;922453;-78
2022/12/04 03:49:12;;;;;;;3.56;1.76;;;;;;;-6.63;53.35;103644.27;474032;112;922547;-77
2022/12/04 03:50:22;;;;;;;2.09;1.44;;;;;;;-6.64;53.30;103648.69;473083;112;922659;-77
2022/12/04 03:51:37;;;;;;;2.72;1.57;;;;;;;-6.64;53.38;103655.77;473467;112;922423;-78
2022/12/04 03:52:53;;;;;;;1.66;1.36;;;;;;;-6.64;53.34;103650.47;474598;111;922408;-78
2022/12/04 03:54:15;;;;;;;2.02;1.40;;;;;;;-6.66;53.30;103645.18;475508;111;922401;-78
2022/12/04 03:55:27;;;;;;;1.54;1.34;;;;;;;-6.65;53.30;103659.33;475941;111;922555;-79
2022/12/04 03:56:34;;;;;;;1.83;1.46;;;;;;;-6.67;53.41;103651.39;475917;111;922549;-78
2022/12/04 03:57:41;;;;;;;1.45;1.35;;;;;;;-6.67;53.41;103658.50;461565;111;922590;-78
2022/12/04 03:58:51;;;;;;;1.67;1.42;;;;;;;-6.69;53.34;103654.99;458790;115;922781;-77
2022/12/04 04:00:04;;;;;;;1.56;1.23;;;;;;;-6.69;53.42;103658.52;459145;115;922678;-78
2022/12/04 04:01:11;;;;;;;4.03;1.93;;;;;;;-6.69;53.28;103662.95;458737;113;923159;-78
2022/12/04 04:02:18;;;;;;;2.58;1.62;;;;;;;-6.71;53.36;103660.31;458795;115;922716;-77
2022/12/04 04:03:30;;;;;;;2.07;1.87;;;;;;;-6.72;53.28;103657.69;458796;115;922518;-78
2022/12/04 04:04:36;;;;;;;1.77;1.42;;;;;;;-6.71;53.41;103660.31;458820;115;922900;-78
2022/12/04 04:05:43;;;;;;;2.76;1.64;;;;;;;-6.72;53.33;103657.69;458783;115;922685;-78
2022/12/04 04:06:55;;;;;;;3.11;1.68;;;;;;;-6.72;53.41;103655.91;458809;115;922491;-78
2022/12/04 04:09:30;;;;;;;1.98;1.82;;;;;;;-6.72;53.33;103661.22;458780;115;922640;-78
2022/12/04 04:10:33;;;;;;;1.83;1.49;;;;;;;-6.75;53.37;103656.86;458816;115;922618;-77
2022/12/04 04:11:43;;;;;;;2.58;1.58;;;;;;;-6.76;53.42;103667.48;458994;115;922939;-78
2022/12/04 04:24:13;;;;;;;2.96;2.03;;;;;;;-6.77;53.34;103657.77;458794;115;922601;-78
2022/12/04 04:25:15;;;;;;;2.08;1.68;;;;;;;-6.94;53.70;103674.00;458797;115;922476;-77
2022/12/04 04:26:18;;;;;;;1.63;1.41;;;;;;;-6.95;53.66;103680.23;458772;113;922581;-77
2022/12/04 04:27:21;;;;;;;2.39;1.64;;;;;;;-6.97;53.65;103674.06;458983;115;922861;-78
2022/12/04 04:28:30;;;;;;;1.61;1.41;;;;;;;-6.96;53.73;103669.64;458971;115;922761;-77
2022/12/04 04:29:34;;;;;;;4.16;1.73;;;;;;;-6.98;53.63;103679.39;458831;115;922623;-78
2022/12/04 04:30:37;;;;;;;1.76;1.49;;;;;;;-6.98;53.72;103677.61;458934;113;922711;-77
2022/12/04 04:31:42;;;;;;;1.98;1.79;;;;;;;-6.97;53.65;103676.72;458934;115;930352;-78
2022/12/04 04:32:52;;;;;;;2.23;2.02;;;;;;;-6.96;53.64;103677.59;458782;115;922591;-78
2022/12/04 04:34:19;;;;;;;1.81;1.68;;;;;;;-6.94;53.58;103679.30;458762;115;922576;-78
2022/12/04 04:35:38;;;;;;;2.78;2.07;;;;;;;-6.94;53.60;103681.08;458674;115;922850;-77
2022/12/04 04:37:08;;;;;;;2.34;1.90;;;;;;;-6.94;53.53;103689.91;458632;115;923243;-78
2022/12/04 04:38:20;;;;;;;1.64;1.49;;;;;;;-6.94;53.55;103689.03;458757;115;922484;-78
2022/12/04 04:39:38;;;;;;;3.47;1.98;;;;;;;-6.96;53.54;103688.20;458580;115;922566;-77
2022/12/04 04:40:51;;;;;;;2.84;2.13;;;;;;;-6.98;53.57;103687.34;456494;113;922974;-77
2022/12/04 04:42:18;;;;;;;3.56;2.34;;;;;;;-7.00;53.55;103689.17;458757;115;923316;-78
2022/12/04 04:43:37;;;;;;;2.44;1.82;;;;;;;-7.01;53.61;103692.72;458785;115;922664;-78
2022/12/04 04:44:52;;;;;;;2.18;2.00;;;;;;;-7.01;53.63;103692.72;458711;115;922883;-78
2022/12/04 04:46:05;;;;;;;2.06;1.85;;;;;;;-7.03;53.68;103691.85;458771;113;922948;-77
2022/12/04 04:47:12;;;;;;;3.42;2.06;;;;;;;-7.04;53.70;103698.05;458804;115;922643;-77
2022/12/04 04:48:21;;;;;;;1.95;1.73;;;;;;;-7.06;53.59;103697.23;458594;115;922521;-78
2022/12/04 04:49:28;;;;;;;2.98;2.37;;;;;;;-7.07;53.65;103699.00;458764;115;922598;-78
2022/12/04 04:50:33;;;;;;;2.24;1.82;;;;;;;-7.06;53.70;103699.88;458787;115;923344;-79
2022/12/04 04:51:37;;;;;;;2.02;1.82;;;;;;;-7.06;53.76;103702.53;458730;115;922864;-76
2022/12/04 04:52:43;;;;;;;2.92;1.86;;;;;;;-7.06;53.66;103700.75;458854;115;922445;-78
2022/12/04 04:53:53;;;;;;;1.94;1.74;;;;;;;-7.05;53.66;103702.48;458684;114;930325;-77
2022/12/04 04:55:00;;;;;;;2.24;1.83;;;;;;;-7.06;53.64;103703.41;459077;115;922422;-80
2022/12/04 04:56:05;;;;;;;2.33;1.61;;;;;;;-7.06;53.64;103698.10;458754;113;922509;-77
2022/12/04 04:57:08;;;;;;;1.91;1.74;;;;;;;-7.06;53.50;103694.58;461499;111;922470;-77
2022/12/04 04:58:18;;;;;;;2.82;1.89;;;;;;;-7.07;53.45;103700.77;467079;113;922620;-76
2022/12/04 04:59:21;;;;;;;3.06;1.77;;;;;;;-7.10;53.41;103704.33;466890;113;923343;-80
2022/12/04 05:00:25;;;;;;;3.13;1.99;;;;;;;-7.10;53.42;103698.16;466995;113;922484;-76
2022/12/04 05:01:28;;;;;;;3.92;1.88;;;;;;;-7.10;53.49;103706.11;467075;111;922445;-79
2022/12/04 05:02:32;;;;;;;1.67;1.57;;;;;;;-7.11;53.48;103707.03;466991;113;922475;-77
2022/12/04 05:03:35;;;;;;;2.22;1.98;;;;;;;-7.11;53.48;103707.03;466916;113;930291;-75
2022/12/04 05:04:38;;;;;;;2.42;1.76;;;;;;;-7.10;53.50;103711.41;467086;113;922824;-76
2022/12/04 05:05:42;;;;;;;2.45;1.81;;;;;;;-7.10;53.47;103706.98;467022;113;922573;-77
2022/12/04 05:06:46;;;;;;;2.01;1.71;;;;;;;-7.10;53.45;103701.68;467134;113;922484;-78
2022/12/04 05:07:50;;;;;;;2.46;1.85;;;;;;;-7.09;53.48;103711.39;466900;113;922375;-79
2022/12/04 05:08:53;;;;;;;2.94;2.07;;;;;;;-7.07;53.48;103708.72;466970;113;922601;-76
2022/12/04 05:09:56;;;;;;;3.11;2.17;;;;;;;-7.07;53.47;103711.37;467030;113;922456;-77
2022/12/04 05:11:00;;;;;;;3.18;2.08;;;;;;;-7.07;53.44;103711.37;466978;111;922861;-79
2022/12/04 05:12:03;;;;;;;3.25;1.82;;;;;;;-7.07;53.42;103714.03;467044;113;922829;-78
2022/12/04 05:13:08;;;;;;;2.15;1.73;;;;;;;-7.08;53.40;103710.50;467031;113;930423;-78
2022/12/04 05:14:11;;;;;;;2.15;1.78;;;;;;;-7.08;53.32;103713.15;466954;113;922571;-76
2022/12/04 05:15:14;;;;;;;2.37;2.10;;;;;;;-7.07;53.26;103717.56;467033;113;930479;-77
2022/12/04 05:16:18;;;;;;;3.51;2.14;;;;;;;-7.06;53.31;103715.78;467016;113;922439;-76
2022/12/04 05:17:21;;;;;;;3.36;2.23;;;;;;;-7.06;53.33;103721.97;466890;113;930481;-77
2022/12/04 05:18:24;;;;;;;2.42;1.89;;;;;;;-7.07;53.23;103717.56;467120;113;922530;-77
2022/12/04 05:20:53;;;;;;;3.14;1.81;;;;;;;-7.07;53.19;103724.64;466839;111;922409;-75
2022/12/04 05:21:56;;;;;;;2.52;1.88;;;;;;;-7.07;53.25;103724.64;466812;113;922426;-78
2022/12/04 05:22:59;;;;;;;2.06;1.86;;;;;;;-7.08;53.12;103730.83;466925;113;930295;-77
2022/12/04 05:24:02;;;;;;;2.46;2.07;;;;;;;-7.10;53.15;103724.67;467054;113;922525;-78